sensor_id;sensor_type;location;lat;lon;timestamp;P1;durP1;ratioP1;P2;durP2;ratioP2
10517;SDS011;5307;42.548;22.968;2023-02-14T00:00:08;82.87;;;38.80;;
10517;SDS011;5307;42.548;22.968;2023-02-14T00:02:36;86.80;;;37.50;;
10517;SDS011;5307;42.548;22.968;2023-02-14T00:05:03;84.00;;;35.77;;
10517;SDS011;5307;42.548;22.968;2023-02-14T00:07:30;76.50;;;35.20;;
10517;SDS011;5307;42.548;22.968;2023-02-14T00:09:57;87.87;;;39.23;;
10517;SDS011;5307;42.548;22.968;2023-02-14T00:12:23;92.23;;;39.30;;
10517;SDS011;5307;42.548;22.968;2023-02-14T00:14:50;80.43;;;36.27;;
10517;SDS011;5307;42.548;22.968;2023-02-14T00:17:36;81.20;;;37.60;;
10517;SDS011;5307;42.548;22.968;2023-02-14T00:20:03;96.50;;;39.07;;
10517;SDS011;5307;42.548;22.968;2023-02-14T00:22:30;86.27;;;38.83;;
10517;SDS011;5307;42.548;22.968;2023-02-14T00:24:57;83.10;;;36.57;;
10517;SDS011;5307;42.548;22.968;2023-02-14T00:27:24;74.83;;;31.83;;
10517;SDS011;5307;42.548;22.968;2023-02-14T00:29:51;80.83;;;33.37;;
10517;SDS011;5307;42.548;22.968;2023-02-14T00:32:18;82.80;;;32.10;;
10517;SDS011;5307;42.548;22.968;2023-02-14T00:34:47;69.70;;;32.87;;
10517;SDS011;5307;42.548;22.968;2023-02-14T00:37:13;67.97;;;30.80;;
10517;SDS011;5307;42.548;22.968;2023-02-14T00:39:40;73.90;;;32.13;;
10517;SDS011;5307;42.548;22.968;2023-02-14T00:42:07;63.83;;;29.27;;
10517;SDS011;5307;42.548;22.968;2023-02-14T00:44:34;71.27;;;31.80;;
10517;SDS011;5307;42.548;22.968;2023-02-14T00:47:02;69.83;;;32.20;;
10517;SDS011;5307;42.548;22.968;2023-02-14T00:49:29;65.60;;;30.93;;
10517;SDS011;5307;42.548;22.968;2023-02-14T00:51:57;70.53;;;31.40;;
10517;SDS011;5307;42.548;22.968;2023-02-14T00:54:23;65.77;;;31.03;;
10517;SDS011;5307;42.548;22.968;2023-02-14T00:56:51;67.10;;;31.33;;
10517;SDS011;5307;42.548;22.968;2023-02-14T00:59:18;72.53;;;30.13;;
10517;SDS011;5307;42.548;22.968;2023-02-14T01:01:45;56.33;;;26.37;;
10517;SDS011;5307;42.548;22.968;2023-02-14T01:04:12;59.63;;;27.83;;
10517;SDS011;5307;42.548;22.968;2023-02-14T01:06:39;70.37;;;30.43;;
10517;SDS011;5307;42.548;22.968;2023-02-14T01:09:07;68.20;;;30.37;;
10517;SDS011;5307;42.548;22.968;2023-02-14T01:11:34;78.03;;;35.03;;
10517;SDS011;5307;42.548;22.968;2023-02-14T01:14:01;86.87;;;38.17;;
10517;SDS011;5307;42.548;22.968;2023-02-14T01:16:28;81.43;;;34.53;;
10517;SDS011;5307;42.548;22.968;2023-02-14T01:18:57;73.30;;;34.60;;
10517;SDS011;5307;42.548;22.968;2023-02-14T01:21:26;77.43;;;34.20;;
10517;SDS011;5307;42.548;22.968;2023-02-14T01:23:54;74.80;;;33.53;;
10517;SDS011;5307;42.548;22.968;2023-02-14T01:26:24;90.30;;;38.67;;
10517;SDS011;5307;42.548;22.968;2023-02-14T01:28:52;88.33;;;38.47;;
10517;SDS011;5307;42.548;22.968;2023-02-14T01:31:19;83.43;;;38.63;;
10517;SDS011;5307;42.548;22.968;2023-02-14T01:33:47;83.77;;;38.67;;
10517;SDS011;5307;42.548;22.968;2023-02-14T01:36:15;94.03;;;37.77;;
10517;SDS011;5307;42.548;22.968;2023-02-14T01:38:44;79.80;;;36.83;;
10517;SDS011;5307;42.548;22.968;2023-02-14T01:41:11;82.53;;;35.17;;
10517;SDS011;5307;42.548;22.968;2023-02-14T01:43:50;80.27;;;36.00;;
10517;SDS011;5307;42.548;22.968;2023-02-14T01:46:18;79.90;;;36.83;;
10517;SDS011;5307;42.548;22.968;2023-02-14T01:48:45;79.47;;;37.17;;
10517;SDS011;5307;42.548;22.968;2023-02-14T01:51:14;73.37;;;32.73;;
10517;SDS011;5307;42.548;22.968;2023-02-14T01:53:44;72.33;;;32.70;;
10517;SDS011;5307;42.548;22.968;2023-02-14T01:56:11;83.80;;;36.13;;
10517;SDS011;5307;42.548;22.968;2023-02-14T01:58:43;78.27;;;35.60;;
10517;SDS011;5307;42.548;22.968;2023-02-14T02:01:14;79.40;;;37.00;;
10517;SDS011;5307;42.548;22.968;2023-02-14T02:03:43;83.40;;;39.53;;
10517;SDS011;5307;42.548;22.968;2023-02-14T02:06:14;85.07;;;40.13;;
10517;SDS011;5307;42.548;22.968;2023-02-14T02:08:47;113.53;;;47.93;;
10517;SDS011;5307;42.548;22.968;2023-02-14T02:11:19;105.93;;;47.27;;
10517;SDS011;5307;42.548;22.968;2023-02-14T02:13:46;116.07;;;51.70;;
10517;SDS011;5307;42.548;22.968;2023-02-14T02:16:23;128.13;;;54.00;;
10517;SDS011;5307;42.548;22.968;2023-02-14T02:19:05;131.93;;;53.57;;
10517;SDS011;5307;42.548;22.968;2023-02-14T02:21:59;122.20;;;50.13;;
10517;SDS011;5307;42.548;22.968;2023-02-14T02:24:51;114.03;;;47.53;;
10517;SDS011;5307;42.548;22.968;2023-02-14T02:27:26;111.53;;;46.67;;
10517;SDS011;5307;42.548;22.968;2023-02-14T02:30:17;114.23;;;46.93;;
10517;SDS011;5307;42.548;22.968;2023-02-14T02:36:19;110.57;;;47.40;;
10517;SDS011;5307;42.548;22.968;2023-02-14T02:39:04;120.67;;;48.00;;
10517;SDS011;5307;42.548;22.968;2023-02-14T02:41:44;121.57;;;50.43;;
10517;SDS011;5307;42.548;22.968;2023-02-14T02:44:24;109.53;;;49.23;;
10517;SDS011;5307;42.548;22.968;2023-02-14T02:46:58;112.80;;;50.63;;
10517;SDS011;5307;42.548;22.968;2023-02-14T02:49:36;112.37;;;49.20;;
10517;SDS011;5307;42.548;22.968;2023-02-14T02:52:30;112.63;;;47.87;;
10517;SDS011;5307;42.548;22.968;2023-02-14T02:55:23;110.10;;;48.57;;
10517;SDS011;5307;42.548;22.968;2023-02-14T02:57:54;107.57;;;46.93;;
10517;SDS011;5307;42.548;22.968;2023-02-14T03:00:21;105.80;;;47.37;;
10517;SDS011;5307;42.548;22.968;2023-02-14T03:02:50;104.53;;;46.10;;
10517;SDS011;5307;42.548;22.968;2023-02-14T03:05:37;110.37;;;49.30;;
10517;SDS011;5307;42.548;22.968;2023-02-14T03:08:08;119.50;;;50.00;;
10517;SDS011;5307;42.548;22.968;2023-02-14T03:10:36;94.47;;;42.03;;
10517;SDS011;5307;42.548;22.968;2023-02-14T03:13:12;87.00;;;40.30;;
10517;SDS011;5307;42.548;22.968;2023-02-14T03:16:11;87.27;;;39.53;;
10517;SDS011;5307;42.548;22.968;2023-02-14T03:22:11;103.53;;;48.87;;
10517;SDS011;5307;42.548;22.968;2023-02-14T03:24:50;100.33;;;46.43;;
10517;SDS011;5307;42.548;22.968;2023-02-14T03:27:24;116.57;;;46.97;;
10517;SDS011;5307;42.548;22.968;2023-02-14T03:29:56;112.10;;;48.33;;
10517;SDS011;5307;42.548;22.968;2023-02-14T03:32:34;100.33;;;43.53;;
10517;SDS011;5307;42.548;22.968;2023-02-14T03:35:10;103.37;;;44.63;;
10517;SDS011;5307;42.548;22.968;2023-02-14T03:37:46;98.73;;;44.07;;
10517;SDS011;5307;42.548;22.968;2023-02-14T03:40:19;105.87;;;44.40;;
10517;SDS011;5307;42.548;22.968;2023-02-14T03:42:49;100.63;;;41.87;;
10517;SDS011;5307;42.548;22.968;2023-02-14T03:45:21;100.63;;;43.30;;
10517;SDS011;5307;42.548;22.968;2023-02-14T03:47:53;91.10;;;42.03;;
10517;SDS011;5307;42.548;22.968;2023-02-14T03:50:23;99.43;;;42.60;;
10517;SDS011;5307;42.548;22.968;2023-02-14T03:52:53;86.63;;;40.00;;
10517;SDS011;5307;42.548;22.968;2023-02-14T03:55:27;80.80;;;38.57;;
10517;SDS011;5307;42.548;22.968;2023-02-14T03:58:02;98.13;;;44.93;;
10517;SDS011;5307;42.548;22.968;2023-02-14T04:03:03;99.37;;;39.70;;
10517;SDS011;5307;42.548;22.968;2023-02-14T04:05:35;91.37;;;40.97;;
10517;SDS011;5307;42.548;22.968;2023-02-14T04:08:06;98.23;;;41.23;;
10517;SDS011;5307;42.548;22.968;2023-02-14T04:10:35;92.13;;;40.47;;
10517;SDS011;5307;42.548;22.968;2023-02-14T04:13:04;99.40;;;40.47;;
10517;SDS011;5307;42.548;22.968;2023-02-14T04:15:31;89.17;;;38.90;;
10517;SDS011;5307;42.548;22.968;2023-02-14T04:17:57;85.07;;;39.00;;
10517;SDS011;5307;42.548;22.968;2023-02-14T04:20:42;89.20;;;40.27;;
10517;SDS011;5307;42.548;22.968;2023-02-14T04:23:08;90.43;;;40.90;;
10517;SDS011;5307;42.548;22.968;2023-02-14T04:25:36;96.77;;;42.40;;
10517;SDS011;5307;42.548;22.968;2023-02-14T04:28:07;99.37;;;41.63;;
10517;SDS011;5307;42.548;22.968;2023-02-14T04:30:34;77.00;;;38.23;;
10517;SDS011;5307;42.548;22.968;2023-02-14T04:33:01;77.33;;;36.53;;
10517;SDS011;5307;42.548;22.968;2023-02-14T04:35:29;79.27;;;36.27;;
10517;SDS011;5307;42.548;22.968;2023-02-14T04:37:56;74.17;;;34.13;;
10517;SDS011;5307;42.548;22.968;2023-02-14T04:40:23;76.50;;;33.17;;
10517;SDS011;5307;42.548;22.968;2023-02-14T04:42:52;72.50;;;33.90;;
10517;SDS011;5307;42.548;22.968;2023-02-14T04:45:18;71.33;;;30.97;;
10517;SDS011;5307;42.548;22.968;2023-02-14T04:47:45;77.67;;;35.00;;
10517;SDS011;5307;42.548;22.968;2023-02-14T04:50:12;70.33;;;34.27;;
10517;SDS011;5307;42.548;22.968;2023-02-14T04:52:40;81.57;;;35.13;;
10517;SDS011;5307;42.548;22.968;2023-02-14T04:55:07;74.00;;;34.93;;
10517;SDS011;5307;42.548;22.968;2023-02-14T04:57:36;105.70;;;44.90;;
10517;SDS011;5307;42.548;22.968;2023-02-14T05:00:04;107.10;;;47.57;;
10517;SDS011;5307;42.548;22.968;2023-02-14T05:02:32;114.33;;;53.07;;
10517;SDS011;5307;42.548;22.968;2023-02-14T05:04:59;104.50;;;47.70;;
10517;SDS011;5307;42.548;22.968;2023-02-14T05:07:25;98.57;;;43.80;;
10517;SDS011;5307;42.548;22.968;2023-02-14T05:09:53;107.43;;;46.53;;
10517;SDS011;5307;42.548;22.968;2023-02-14T05:12:20;97.07;;;44.83;;
10517;SDS011;5307;42.548;22.968;2023-02-14T05:14:46;102.53;;;44.30;;
10517;SDS011;5307;42.548;22.968;2023-02-14T05:17:14;105.00;;;47.70;;
10517;SDS011;5307;42.548;22.968;2023-02-14T05:19:41;103.37;;;44.67;;
10517;SDS011;5307;42.548;22.968;2023-02-14T05:22:08;99.97;;;47.43;;
10517;SDS011;5307;42.548;22.968;2023-02-14T05:24:35;115.40;;;50.23;;
10517;SDS011;5307;42.548;22.968;2023-02-14T05:27:02;117.63;;;52.20;;
10517;SDS011;5307;42.548;22.968;2023-02-14T05:29:29;116.47;;;51.63;;
10517;SDS011;5307;42.548;22.968;2023-02-14T05:31:55;155.40;;;63.93;;
10517;SDS011;5307;42.548;22.968;2023-02-14T05:34:24;125.83;;;55.23;;
10517;SDS011;5307;42.548;22.968;2023-02-14T05:36:50;126.33;;;55.27;;
10517;SDS011;5307;42.548;22.968;2023-02-14T05:39:19;134.43;;;55.57;;
10517;SDS011;5307;42.548;22.968;2023-02-14T05:41:46;166.13;;;72.80;;
10517;SDS011;5307;42.548;22.968;2023-02-14T05:44:12;130.97;;;55.83;;
10517;SDS011;5307;42.548;22.968;2023-02-14T05:46:39;132.03;;;59.77;;
10517;SDS011;5307;42.548;22.968;2023-02-14T05:49:07;149.90;;;67.63;;
10517;SDS011;5307;42.548;22.968;2023-02-14T05:51:35;119.27;;;54.40;;
10517;SDS011;5307;42.548;22.968;2023-02-14T05:54:12;113.13;;;47.27;;
10517;SDS011;5307;42.548;22.968;2023-02-14T05:56:39;111.80;;;49.33;;
10517;SDS011;5307;42.548;22.968;2023-02-14T05:59:06;110.67;;;50.70;;
10517;SDS011;5307;42.548;22.968;2023-02-14T06:01:33;117.43;;;50.23;;
10517;SDS011;5307;42.548;22.968;2023-02-14T06:03:59;111.70;;;51.33;;
10517;SDS011;5307;42.548;22.968;2023-02-14T06:06:26;121.83;;;54.13;;
10517;SDS011;5307;42.548;22.968;2023-02-14T06:08:55;117.83;;;52.80;;
10517;SDS011;5307;42.548;22.968;2023-02-14T06:11:22;128.77;;;58.43;;
10517;SDS011;5307;42.548;22.968;2023-02-14T06:13:48;121.17;;;53.40;;
10517;SDS011;5307;42.548;22.968;2023-02-14T06:16:15;125.87;;;54.00;;
10517;SDS011;5307;42.548;22.968;2023-02-14T06:18:42;126.83;;;53.60;;
10517;SDS011;5307;42.548;22.968;2023-02-14T06:21:08;117.33;;;53.53;;
10517;SDS011;5307;42.548;22.968;2023-02-14T06:26:06;125.30;;;54.00;;
10517;SDS011;5307;42.548;22.968;2023-02-14T06:28:33;143.23;;;64.13;;
10517;SDS011;5307;42.548;22.968;2023-02-14T06:31:00;131.23;;;53.43;;
10517;SDS011;5307;42.548;22.968;2023-02-14T06:33:27;128.50;;;57.67;;
10517;SDS011;5307;42.548;22.968;2023-02-14T06:35:53;128.90;;;56.27;;
10517;SDS011;5307;42.548;22.968;2023-02-14T06:38:20;129.37;;;56.53;;
10517;SDS011;5307;42.548;22.968;2023-02-14T06:40:47;128.07;;;58.80;;
10517;SDS011;5307;42.548;22.968;2023-02-14T06:43:15;133.50;;;60.93;;
10517;SDS011;5307;42.548;22.968;2023-02-14T06:45:42;137.97;;;61.80;;
10517;SDS011;5307;42.548;22.968;2023-02-14T06:48:09;137.63;;;62.13;;
10517;SDS011;5307;42.548;22.968;2023-02-14T06:50:36;154.33;;;69.27;;
10517;SDS011;5307;42.548;22.968;2023-02-14T06:53:02;168.20;;;70.80;;
10517;SDS011;5307;42.548;22.968;2023-02-14T06:55:30;157.77;;;71.50;;
10517;SDS011;5307;42.548;22.968;2023-02-14T06:57:57;195.10;;;86.80;;
10517;SDS011;5307;42.548;22.968;2023-02-14T07:00:25;195.40;;;80.70;;
10517;SDS011;5307;42.548;22.968;2023-02-14T07:02:52;209.67;;;84.80;;
10517;SDS011;5307;42.548;22.968;2023-02-14T07:05:19;167.37;;;74.67;;
10517;SDS011;5307;42.548;22.968;2023-02-14T07:07:46;197.23;;;82.77;;
10517;SDS011;5307;42.548;22.968;2023-02-14T07:10:13;183.43;;;78.40;;
10517;SDS011;5307;42.548;22.968;2023-02-14T07:12:40;141.63;;;64.90;;
10517;SDS011;5307;42.548;22.968;2023-02-14T07:15:08;107.27;;;47.13;;
10517;SDS011;5307;42.548;22.968;2023-02-14T07:17:37;98.17;;;44.93;;
10517;SDS011;5307;42.548;22.968;2023-02-14T07:20:04;77.83;;;41.00;;
10517;SDS011;5307;42.548;22.968;2023-02-14T07:22:32;66.33;;;33.13;;
10517;SDS011;5307;42.548;22.968;2023-02-14T07:25:00;47.07;;;24.23;;
10517;SDS011;5307;42.548;22.968;2023-02-14T07:27:27;54.80;;;25.67;;
10517;SDS011;5307;42.548;22.968;2023-02-14T07:29:54;43.03;;;20.33;;
10517;SDS011;5307;42.548;22.968;2023-02-14T07:32:20;47.77;;;22.57;;
10517;SDS011;5307;42.548;22.968;2023-02-14T07:34:49;46.53;;;24.60;;
10517;SDS011;5307;42.548;22.968;2023-02-14T07:37:16;49.37;;;23.97;;
10517;SDS011;5307;42.548;22.968;2023-02-14T07:39:43;62.27;;;28.63;;
10517;SDS011;5307;42.548;22.968;2023-02-14T07:42:11;61.80;;;28.10;;
10517;SDS011;5307;42.548;22.968;2023-02-14T07:44:38;70.83;;;30.10;;
10517;SDS011;5307;42.548;22.968;2023-02-14T07:47:04;59.03;;;27.10;;
10517;SDS011;5307;42.548;22.968;2023-02-14T07:49:31;43.20;;;20.50;;
10517;SDS011;5307;42.548;22.968;2023-02-14T07:52:01;48.07;;;22.73;;
10517;SDS011;5307;42.548;22.968;2023-02-14T07:54:29;49.43;;;22.93;;
10517;SDS011;5307;42.548;22.968;2023-02-14T07:56:56;44.13;;;20.43;;
10517;SDS011;5307;42.548;22.968;2023-02-14T07:59:23;44.93;;;22.03;;
10517;SDS011;5307;42.548;22.968;2023-02-14T08:01:49;40.83;;;20.93;;
10517;SDS011;5307;42.548;22.968;2023-02-14T08:04:16;41.07;;;21.70;;
10517;SDS011;5307;42.548;22.968;2023-02-14T08:06:44;46.43;;;24.17;;
10517;SDS011;5307;42.548;22.968;2023-02-14T08:09:12;44.10;;;21.60;;
10517;SDS011;5307;42.548;22.968;2023-02-14T08:11:51;47.57;;;24.40;;
10517;SDS011;5307;42.548;22.968;2023-02-14T08:14:35;47.78;;;24.23;;
10517;SDS011;5307;42.548;22.968;2023-02-14T08:17:02;49.23;;;24.47;;
10517;SDS011;5307;42.548;22.968;2023-02-14T08:19:31;47.10;;;23.07;;
10517;SDS011;5307;42.548;22.968;2023-02-14T08:21:58;64.23;;;29.07;;
10517;SDS011;5307;42.548;22.968;2023-02-14T08:24:28;134.27;;;48.43;;
10517;SDS011;5307;42.548;22.968;2023-02-14T08:26:55;51.93;;;27.17;;
10517;SDS011;5307;42.548;22.968;2023-02-14T08:29:22;50.00;;;25.57;;
10517;SDS011;5307;42.548;22.968;2023-02-14T08:31:49;60.93;;;29.63;;
10517;SDS011;5307;42.548;22.968;2023-02-14T08:34:17;54.60;;;27.63;;
10517;SDS011;5307;42.548;22.968;2023-02-14T08:36:44;61.17;;;30.60;;
10517;SDS011;5307;42.548;22.968;2023-02-14T08:39:11;66.45;;;31.27;;
10517;SDS011;5307;42.548;22.968;2023-02-14T08:41:39;80.83;;;35.93;;
10517;SDS011;5307;42.548;22.968;2023-02-14T08:44:06;71.03;;;33.37;;
10517;SDS011;5307;42.548;22.968;2023-02-14T08:46:33;75.00;;;37.00;;
10517;SDS011;5307;42.548;22.968;2023-02-14T08:49:00;84.47;;;40.00;;
10517;SDS011;5307;42.548;22.968;2023-02-14T08:51:26;104.60;;;43.17;;
10517;SDS011;5307;42.548;22.968;2023-02-14T08:53:53;89.33;;;40.00;;
10517;SDS011;5307;42.548;22.968;2023-02-14T08:56:20;105.78;;;42.42;;
10517;SDS011;5307;42.548;22.968;2023-02-14T08:58:51;89.53;;;42.70;;
10517;SDS011;5307;42.548;22.968;2023-02-14T09:01:18;93.03;;;43.67;;
10517;SDS011;5307;42.548;22.968;2023-02-14T09:03:45;94.23;;;45.40;;
10517;SDS011;5307;42.548;22.968;2023-02-14T09:06:14;90.78;;;44.13;;
10517;SDS011;5307;42.548;22.968;2023-02-14T09:08:42;98.83;;;42.90;;
10517;SDS011;5307;42.548;22.968;2023-02-14T09:11:11;97.43;;;45.35;;
10517;SDS011;5307;42.548;22.968;2023-02-14T09:13:39;103.68;;;47.47;;
10517;SDS011;5307;42.548;22.968;2023-02-14T09:16:08;97.03;;;46.83;;
10517;SDS011;5307;42.548;22.968;2023-02-14T09:18:36;117.17;;;51.00;;
10517;SDS011;5307;42.548;22.968;2023-02-14T09:21:05;113.43;;;52.63;;
10517;SDS011;5307;42.548;22.968;2023-02-14T09:23:33;126.05;;;57.15;;
10517;SDS011;5307;42.548;22.968;2023-02-14T09:26:00;133.32;;;65.05;;
10517;SDS011;5307;42.548;22.968;2023-02-14T09:28:27;156.23;;;70.60;;
10517;SDS011;5307;42.548;22.968;2023-02-14T09:30:55;171.88;;;75.18;;
10517;SDS011;5307;42.548;22.968;2023-02-14T09:33:24;165.55;;;77.35;;
10517;SDS011;5307;42.548;22.968;2023-02-14T09:35:53;160.37;;;68.87;;
10517;SDS011;5307;42.548;22.968;2023-02-14T09:38:20;145.13;;;65.93;;
10517;SDS011;5307;42.548;22.968;2023-02-14T09:40:46;172.07;;;71.30;;
10517;SDS011;5307;42.548;22.968;2023-02-14T09:43:16;131.27;;;59.40;;
10517;SDS011;5307;42.548;22.968;2023-02-14T09:45:50;110.37;;;52.27;;
10517;SDS011;5307;42.548;22.968;2023-02-14T09:48:22;103.20;;;50.85;;
10517;SDS011;5307;42.548;22.968;2023-02-14T09:50:58;92.95;;;44.85;;
10517;SDS011;5307;42.548;22.968;2023-02-14T09:53:29;94.97;;;42.45;;
10517;SDS011;5307;42.548;22.968;2023-02-14T09:56:00;80.55;;;41.80;;
10517;SDS011;5307;42.548;22.968;2023-02-14T09:58:35;83.53;;;40.80;;
10517;SDS011;5307;42.548;22.968;2023-02-14T10:01:11;100.93;;;48.73;;
10517;SDS011;5307;42.548;22.968;2023-02-14T10:06:40;193.20;;;73.15;;
10517;SDS011;5307;42.548;22.968;2023-02-14T10:09:23;130.45;;;61.45;;
10517;SDS011;5307;42.548;22.968;2023-02-14T10:12:08;137.95;;;63.13;;
10517;SDS011;5307;42.548;22.968;2023-02-14T10:14:39;144.32;;;64.68;;
10517;SDS011;5307;42.548;22.968;2023-02-14T10:17:07;159.05;;;66.90;;
10517;SDS011;5307;42.548;22.968;2023-02-14T10:19:42;133.57;;;58.00;;
10517;SDS011;5307;42.548;22.968;2023-02-14T10:22:14;88.95;;;43.17;;
10517;SDS011;5307;42.548;22.968;2023-02-14T10:24:44;117.80;;;51.63;;
10517;SDS011;5307;42.548;22.968;2023-02-14T10:27:19;120.95;;;50.85;;
10517;SDS011;5307;42.548;22.968;2023-02-14T10:29:57;129.20;;;48.55;;
10517;SDS011;5307;42.548;22.968;2023-02-14T10:32:27;106.95;;;45.80;;
10517;SDS011;5307;42.548;22.968;2023-02-14T10:35:03;79.85;;;39.78;;
10517;SDS011;5307;42.548;22.968;2023-02-14T10:37:43;96.28;;;37.33;;
10517;SDS011;5307;42.548;22.968;2023-02-14T10:40:30;128.82;;;46.67;;
10517;SDS011;5307;42.548;22.968;2023-02-14T10:43:18;72.28;;;34.63;;
10517;SDS011;5307;42.548;22.968;2023-02-14T10:45:55;63.58;;;33.33;;
10517;SDS011;5307;42.548;22.968;2023-02-14T10:48:35;69.82;;;30.83;;
10517;SDS011;5307;42.548;22.968;2023-02-14T10:51:11;88.57;;;37.85;;
10517;SDS011;5307;42.548;22.968;2023-02-14T10:53:45;79.63;;;39.60;;
10517;SDS011;5307;42.548;22.968;2023-02-14T10:56:23;51.63;;;22.02;;
10517;SDS011;5307;42.548;22.968;2023-02-14T10:58:57;60.72;;;29.10;;
10517;SDS011;5307;42.548;22.968;2023-02-14T11:01:28;53.78;;;25.75;;
10517;SDS011;5307;42.548;22.968;2023-02-14T11:03:56;67.85;;;30.30;;
10517;SDS011;5307;42.548;22.968;2023-02-14T11:06:29;89.43;;;37.88;;
10517;SDS011;5307;42.548;22.968;2023-02-14T11:08:56;38.05;;;19.70;;
10517;SDS011;5307;42.548;22.968;2023-02-14T11:11:24;29.50;;;14.02;;
10517;SDS011;5307;42.548;22.968;2023-02-14T11:13:55;31.23;;;16.13;;
10517;SDS011;5307;42.548;22.968;2023-02-14T11:16:28;27.40;;;15.95;;
10517;SDS011;5307;42.548;22.968;2023-02-14T11:19:07;55.97;;;23.55;;
10517;SDS011;5307;42.548;22.968;2023-02-14T11:21:40;30.77;;;16.33;;
10517;SDS011;5307;42.548;22.968;2023-02-14T11:24:15;25.27;;;14.57;;
10517;SDS011;5307;42.548;22.968;2023-02-14T11:26:45;32.25;;;15.75;;
10517;SDS011;5307;42.548;22.968;2023-02-14T11:29:13;31.13;;;15.32;;
10517;SDS011;5307;42.548;22.968;2023-02-14T11:31:46;29.60;;;14.75;;
10517;SDS011;5307;42.548;22.968;2023-02-14T11:34:22;31.08;;;16.58;;
10517;SDS011;5307;42.548;22.968;2023-02-14T11:36:58;40.25;;;19.92;;
10517;SDS011;5307;42.548;22.968;2023-02-14T11:39:27;38.95;;;19.38;;
10517;SDS011;5307;42.548;22.968;2023-02-14T11:41:56;39.42;;;18.80;;
10517;SDS011;5307;42.548;22.968;2023-02-14T11:44:26;33.28;;;17.65;;
10517;SDS011;5307;42.548;22.968;2023-02-14T11:46:55;27.30;;;16.33;;
10517;SDS011;5307;42.548;22.968;2023-02-14T11:49:37;44.83;;;21.80;;
10517;SDS011;5307;42.548;22.968;2023-02-14T11:52:15;23.73;;;13.82;;
10517;SDS011;5307;42.548;22.968;2023-02-14T11:54:53;35.05;;;18.45;;
10517;SDS011;5307;42.548;22.968;2023-02-14T11:57:24;38.20;;;20.23;;
10517;SDS011;5307;42.548;22.968;2023-02-14T11:59:57;27.05;;;15.75;;
10517;SDS011;5307;42.548;22.968;2023-02-14T12:02:30;27.13;;;15.05;;
10517;SDS011;5307;42.548;22.968;2023-02-14T12:05:02;28.75;;;14.20;;
10517;SDS011;5307;42.548;22.968;2023-02-14T12:07:33;25.35;;;13.63;;
10517;SDS011;5307;42.548;22.968;2023-02-14T12:10:07;24.83;;;13.10;;
10517;SDS011;5307;42.548;22.968;2023-02-14T12:12:57;35.40;;;16.63;;
10517;SDS011;5307;42.548;22.968;2023-02-14T12:15:26;18.50;;;9.15;;
10517;SDS011;5307;42.548;22.968;2023-02-14T12:21:10;21.42;;;13.25;;
10517;SDS011;5307;42.548;22.968;2023-02-14T12:23:49;25.75;;;13.23;;
10517;SDS011;5307;42.548;22.968;2023-02-14T12:26:25;21.75;;;11.02;;
10517;SDS011;5307;42.548;22.968;2023-02-14T12:28:57;24.65;;;15.10;;
10517;SDS011;5307;42.548;22.968;2023-02-14T12:31:30;28.33;;;14.43;;
10517;SDS011;5307;42.548;22.968;2023-02-14T12:33:57;16.90;;;10.23;;
10517;SDS011;5307;42.548;22.968;2023-02-14T12:36:32;21.88;;;12.75;;
10517;SDS011;5307;42.548;22.968;2023-02-14T12:39:16;23.35;;;12.32;;
10517;SDS011;5307;42.548;22.968;2023-02-14T12:41:53;22.02;;;11.90;;
10517;SDS011;5307;42.548;22.968;2023-02-14T12:44:28;18.13;;;11.10;;
10517;SDS011;5307;42.548;22.968;2023-02-14T12:47:08;13.23;;;7.63;;
10517;SDS011;5307;42.548;22.968;2023-02-14T12:49:48;24.52;;;11.38;;
10517;SDS011;5307;42.548;22.968;2023-02-14T12:52:31;25.55;;;12.85;;
10517;SDS011;5307;42.548;22.968;2023-02-14T12:58:11;35.80;;;13.48;;
10517;SDS011;5307;42.548;22.968;2023-02-14T13:00:49;12.70;;;7.03;;
10517;SDS011;5307;42.548;22.968;2023-02-14T13:03:27;67.53;;;27.65;;
10517;SDS011;5307;42.548;22.968;2023-02-14T13:06:08;28.73;;;14.18;;
10517;SDS011;5307;42.548;22.968;2023-02-14T13:08:47;44.20;;;18.88;;
10517;SDS011;5307;42.548;22.968;2023-02-14T13:11:30;36.10;;;17.60;;
10517;SDS011;5307;42.548;22.968;2023-02-14T13:14:07;16.63;;;9.40;;
10517;SDS011;5307;42.548;22.968;2023-02-14T13:16:46;30.60;;;12.55;;
10517;SDS011;5307;42.548;22.968;2023-02-14T13:19:21;39.72;;;15.05;;
10517;SDS011;5307;42.548;22.968;2023-02-14T13:21:59;31.17;;;14.52;;
10517;SDS011;5307;42.548;22.968;2023-02-14T13:24:30;35.53;;;17.70;;
10517;SDS011;5307;42.548;22.968;2023-02-14T13:27:02;43.08;;;18.33;;
10517;SDS011;5307;42.548;22.968;2023-02-14T13:29:33;18.02;;;6.78;;
10517;SDS011;5307;42.548;22.968;2023-02-14T13:32:08;15.07;;;8.55;;
10517;SDS011;5307;42.548;22.968;2023-02-14T13:34:40;33.28;;;16.00;;
10517;SDS011;5307;42.548;22.968;2023-02-14T13:37:11;21.33;;;11.65;;
10517;SDS011;5307;42.548;22.968;2023-02-14T13:39:41;29.98;;;15.68;;
10517;SDS011;5307;42.548;22.968;2023-02-14T13:42:17;27.00;;;12.07;;
10517;SDS011;5307;42.548;22.968;2023-02-14T13:48:30;27.50;;;12.38;;
10517;SDS011;5307;42.548;22.968;2023-02-14T13:50:58;29.23;;;15.32;;
10517;SDS011;5307;42.548;22.968;2023-02-14T13:53:30;29.70;;;8.27;;
10517;SDS011;5307;42.548;22.968;2023-02-14T13:58:59;22.30;;;11.35;;
10517;SDS011;5307;42.548;22.968;2023-02-14T14:01:30;26.77;;;14.35;;
10517;SDS011;5307;42.548;22.968;2023-02-14T14:04:00;23.80;;;10.23;;
10517;SDS011;5307;42.548;22.968;2023-02-14T14:06:28;17.23;;;10.38;;
10517;SDS011;5307;42.548;22.968;2023-02-14T14:08:57;16.33;;;9.02;;
10517;SDS011;5307;42.548;22.968;2023-02-14T14:14:33;13.50;;;7.50;;
10517;SDS011;5307;42.548;22.968;2023-02-14T14:17:15;19.48;;;10.57;;
10517;SDS011;5307;42.548;22.968;2023-02-14T14:19:52;12.15;;;6.80;;
10517;SDS011;5307;42.548;22.968;2023-02-14T14:22:19;14.65;;;6.68;;
10517;SDS011;5307;42.548;22.968;2023-02-14T14:24:53;19.63;;;10.60;;
10517;SDS011;5307;42.548;22.968;2023-02-14T14:27:23;15.75;;;9.27;;
10517;SDS011;5307;42.548;22.968;2023-02-14T14:29:54;10.60;;;5.75;;
10517;SDS011;5307;42.548;22.968;2023-02-14T14:32:24;18.85;;;9.68;;
10517;SDS011;5307;42.548;22.968;2023-02-14T14:34:54;19.67;;;9.82;;
10517;SDS011;5307;42.548;22.968;2023-02-14T14:37:23;15.55;;;9.48;;
10517;SDS011;5307;42.548;22.968;2023-02-14T14:39:52;27.25;;;13.07;;
10517;SDS011;5307;42.548;22.968;2023-02-14T14:42:20;14.57;;;7.55;;
10517;SDS011;5307;42.548;22.968;2023-02-14T14:44:50;17.25;;;9.82;;
10517;SDS011;5307;42.548;22.968;2023-02-14T14:47:21;12.23;;;6.25;;
10517;SDS011;5307;42.548;22.968;2023-02-14T14:49:51;7.18;;;4.57;;
10517;SDS011;5307;42.548;22.968;2023-02-14T14:52:28;15.52;;;8.55;;
10517;SDS011;5307;42.548;22.968;2023-02-14T14:54:58;20.40;;;10.70;;
10517;SDS011;5307;42.548;22.968;2023-02-14T14:57:28;21.65;;;8.73;;
10517;SDS011;5307;42.548;22.968;2023-02-14T15:02:57;15.98;;;8.30;;
10517;SDS011;5307;42.548;22.968;2023-02-14T15:05:27;11.85;;;6.13;;
10517;SDS011;5307;42.548;22.968;2023-02-14T15:07:57;17.17;;;8.85;;
10517;SDS011;5307;42.548;22.968;2023-02-14T15:10:37;20.77;;;10.45;;
10517;SDS011;5307;42.548;22.968;2023-02-14T15:13:07;19.17;;;11.45;;